Time;durP1;ratioP1;P1;durP2;ratioP2;P2;SDS_P1;SDS_P2;PMS_P1;PMS_P2;Temp;Humidity;BMP_temperature;BMP_pressure;BME280_temperature;BME280_humidity;BME280_pressure;Samples;Min_cycle;Max_cycle;Signal;HPM_P1;HPM_P2
2023/07/18 00:02:07;;;;;;;13.90;2.63;;;;;;;15.95;100.00;101916.78;5030810;28;20496;-46
2023/07/18 00:04:32;;;;;;;7.97;2.35;;;;;;;16.27;100.00;101972.22;5032338;28;20366;-54
2023/07/18 00:06:58;;;;;;;8.27;2.13;;;;;;;16.26;100.00;101974.91;5032021;28;20048;-49
2023/07/18 00:09:24;;;;;;;8.35;2.50;;;;;;;15.80;100.00;101893.44;5019261;28;20034;-49
2023/07/18 00:11:49;;;;;;;12.52;2.58;;;;;;;15.79;100.00;101897.00;5032074;28;20044;-50
2023/07/18 00:14:15;;;;;;;10.07;2.13;;;;;;;16.00;100.00;101921.91;5031912;28;20029;-49
2023/07/18 00:16:41;;;;;;;8.00;2.30;;;;;;;16.17;100.00;101962.84;5031942;28;20033;-50
2023/07/18 00:19:07;;;;;;;10.30;2.40;;;;;;;16.13;100.00;101978.97;5031896;28;20536;-48
2023/07/18 00:21:33;;;;;;;8.80;2.67;;;;;;;16.10;100.00;101963.16;5031880;28;20084;-48
2023/07/18 00:23:59;;;;;;;10.85;2.28;;;;;;;16.05;100.00;101960.63;5038720;28;20353;-50
2023/07/18 00:26:24;;;;;;;10.55;2.55;;;;;;;15.85;100.00;101943.75;5046831;28;20250;-51
2023/07/18 00:28:53;;;;;;;5.63;2.25;;;;;;;15.92;100.00;101951.41;5051379;28;20063;-55
2023/07/18 00:31:19;;;;;;;5.45;2.20;;;;;;;15.46;100.00;101877.88;5047620;28;20033;-51
2023/07/18 00:33:44;;;;;;;7.43;2.22;;;;;;;15.35;100.00;101876.53;5044253;28;20363;-55
2023/07/18 00:36:09;;;;;;;10.98;2.03;;;;;;;15.83;100.00;101953.53;5043272;28;20029;-52
2023/07/18 00:38:35;;;;;;;8.65;2.45;;;;;;;15.75;100.00;101948.50;5032695;28;20034;-53
2023/07/18 00:41:00;;;;;;;8.77;2.60;;;;;;;15.32;100.00;101881.94;5037089;28;20033;-57
2023/07/18 00:43:25;;;;;;;9.32;2.13;;;;;;;15.34;100.00;101878.31;5031610;28;20044;-50
2023/07/18 00:45:51;;;;;;;8.60;2.33;;;;;;;15.76;100.00;101942.28;5030218;28;20044;-49
2023/07/18 00:48:17;;;;;;;10.95;2.35;;;;;;;15.48;100.00;101905.25;5034031;28;20041;-51
2023/07/18 00:50:42;;;;;;;10.52;2.00;;;;;;;15.79;100.00;101960.72;5027624;28;20045;-50
2023/07/18 00:53:07;;;;;;;9.13;1.63;;;;;;;15.67;100.00;101954.06;5045824;28;20469;-52
2023/07/18 00:55:33;;;;;;;8.55;1.65;;;;;;;15.79;100.00;101958.06;5047605;28;20033;-52
2023/07/18 00:57:59;;;;;;;7.55;1.95;;;;;;;15.77;100.00;101949.31;5052895;28;20045;-53
2023/07/18 01:00:24;;;;;;;8.77;1.73;;;;;;;15.73;100.00;101963.63;5036679;28;20033;-51
2023/07/18 01:02:50;;;;;;;5.22;1.67;;;;;;;15.69;100.00;101967.31;5055051;28;20477;-51
2023/07/18 01:05:17;;;;;;;8.25;2.63;;;;;;;15.65;100.00;101963.03;5036569;28;20044;-50
2023/07/18 01:07:43;;;;;;;5.93;1.85;;;;;;;15.21;100.00;101891.13;5055058;28;20025;-50
2023/07/18 01:10:23;;;;;;;10.20;2.20;;;;;;;15.51;100.00;101955.56;5043476;28;20021;-56
2023/07/18 01:12:49;;;;;;;8.27;2.10;;;;;;;15.07;100.00;101868.66;5033935;28;20033;-51
2023/07/18 01:15:14;;;;;;;7.68;3.08;;;;;;;15.42;100.00;101925.78;5033852;28;20034;-49
2023/07/18 01:17:42;;;;;;;6.65;2.13;;;;;;;15.38;100.00;101926.81;5043865;28;20090;-54
2023/07/18 01:20:11;;;;;;;6.10;1.65;;;;;;;15.53;100.00;101943.09;5036543;28;20040;-49
2023/07/18 01:22:38;;;;;;;9.43;1.98;;;;;;;15.08;100.00;101860.66;5054046;28;20122;-51
2023/07/18 01:25:03;;;;;;;7.18;1.60;;;;;;;15.47;100.00;101945.13;5049715;28;20068;-52
2023/07/18 01:27:30;;;;;;;7.10;2.03;;;;;;;15.49;100.00;101948.56;5036874;28;20077;-52
2023/07/18 01:29:55;;;;;;;10.10;2.25;;;;;;;15.03;100.00;101865.25;5053779;28;20466;-53
2023/07/18 01:32:20;;;;;;;5.80;2.20;;;;;;;15.41;100.00;101946.13;5054279;28;20111;-50
2023/07/18 01:34:46;;;;;;;8.23;2.08;;;;;;;15.44;100.00;101935.41;5054222;28;20496;-48
2023/07/18 01:37:15;;;;;;;6.15;2.20;;;;;;;15.43;100.00;101938.13;5038864;28;20485;-49
2023/07/18 01:39:40;;;;;;;8.27;3.30;;;;;;;15.43;100.00;101933.69;5054287;28;20086;-51
2023/07/18 01:42:06;;;;;;;9.80;2.60;;;;;;;14.92;100.00;101854.13;5044252;28;20042;-47
2023/07/18 01:44:33;;;;;;;10.02;3.28;;;;;;;15.32;100.00;101935.88;5043307;28;20044;-50
2023/07/18 01:46:59;;;;;;;6.82;1.88;;;;;;;15.31;100.00;101922.63;5053327;28;20053;-50
2023/07/18 01:49:24;;;;;;;7.75;2.05;;;;;;;15.29;100.00;101917.41;5054051;28;20128;-53
2023/07/18 01:51:49;;;;;;;5.20;2.03;;;;;;;15.26;100.00;101912.22;5053357;28;20041;-53
2023/07/18 01:54:15;;;;;;;5.03;1.75;;;;;;;14.77;100.00;101845.88;5053926;28;20045;-52
2023/07/18 01:56:40;;;;;;;10.35;2.20;;;;;;;15.17;100.00;101923.13;5053923;28;20044;-53
2023/07/18 01:59:05;;;;;;;7.88;2.45;;;;;;;14.74;100.00;101851.28;5033525;28;20045;-49
2023/07/18 02:01:31;;;;;;;4.63;2.00;;;;;;;14.75;100.00;101848.56;5034104;28;20033;-49
2023/07/18 02:03:56;;;;;;;10.68;2.25;;;;;;;15.08;100.00;101912.84;5033645;28;20036;-52
2023/07/18 02:06:24;;;;;;;6.28;2.25;;;;;;;15.08;100.00;101910.19;5033821;28;20034;-49
2023/07/18 02:08:51;;;;;;;9.70;2.40;;;;;;;14.39;100.00;101823.28;5050557;28;20041;-48
2023/07/18 02:11:16;;;;;;;5.95;2.05;;;;;;;14.43;100.00;101807.22;5052936;28;20039;-51
2023/07/18 02:13:41;;;;;;;8.20;2.50;;;;;;;15.05;100.00;101913.81;5053657;28;20029;-50
2023/07/18 02:16:07;;;;;;;5.90;1.85;;;;;;;14.67;100.00;101845.31;5038522;28;20501;-48
2023/07/18 02:18:32;;;;;;;9.35;2.85;;;;;;;14.93;100.00;101897.44;5033573;28;20553;-50
2023/07/18 02:20:57;;;;;;;6.55;2.33;;;;;;;15.00;100.00;101922.84;5042663;28;20102;-49
2023/07/18 02:23:23;;;;;;;7.07;2.22;;;;;;;14.97;100.00;101917.63;5033524;28;20075;-50
2023/07/18 02:25:48;;;;;;;7.93;2.17;;;;;;;13.46;100.00;101650.66;5041788;28;20051;-49
2023/07/18 02:28:14;;;;;;;4.38;2.08;;;;;;;14.84;100.00;101900.38;5053689;28;20029;-51
2023/07/18 02:30:41;;;;;;;7.75;2.05;;;;;;;14.78;100.00;101898.81;5049710;28;20041;-53
2023/07/18 02:33:07;;;;;;;6.00;2.03;;;;;;;14.34;100.00;101836.66;5033164;28;20030;-53
2023/07/18 02:35:32;;;;;;;5.60;2.38;;;;;;;14.33;100.00;101829.63;5033283;28;20037;-49
2023/07/18 02:37:58;;;;;;;9.82;1.92;;;;;;;14.71;100.00;101905.22;5033362;28;20052;-50
2023/07/18 02:40:24;;;;;;;7.70;2.15;;;;;;;14.45;100.00;101865.44;5038389;28;20554;-49
2023/07/18 02:42:49;;;;;;;8.55;2.53;;;;;;;14.59;100.00;101906.47;5053089;28;20036;-50
2023/07/18 02:45:15;;;;;;;8.07;2.53;;;;;;;14.64;100.00;101909.00;5053218;28;20037;-49
2023/07/18 02:47:40;;;;;;;4.63;2.38;;;;;;;14.38;100.00;101855.97;5053044;28;20044;-50
2023/07/18 02:50:06;;;;;;;10.05;2.60;;;;;;;14.27;100.00;101828.94;5049284;28;20044;-51
2023/07/18 02:52:32;;;;;;;5.10;1.90;;;;;;;14.33;100.00;101840.22;5030946;28;20404;-49
2023/07/18 02:54:57;;;;;;;6.45;2.28;;;;;;;14.39;100.00;101861.22;5033294;28;20120;-55
2023/07/18 02:57:22;;;;;;;7.97;2.28;;;;;;;14.68;100.00;101894.75;5033266;28;20033;-48
2023/07/18 02:59:48;;;;;;;5.90;2.20;;;;;;;14.55;100.00;101881.00;5033146;28;20129;-52
2023/07/18 03:02:13;;;;;;;9.80;2.13;;;;;;;14.64;100.00;101906.34;5033184;28;20038;-52
2023/07/18 03:04:39;;;;;;;7.65;2.28;;;;;;;14.61;100.00;101906.44;5039389;28;20037;-48
2023/07/18 03:07:05;;;;;;;5.38;2.00;;;;;;;14.20;100.00;101838.84;5031483;28;20053;-48
2023/07/18 03:09:34;;;;;;;7.38;1.90;;;;;;;14.57;100.00;101913.63;5044792;28;20037;-48
2023/07/18 03:11:59;;;;;;;5.80;2.50;;;;;;;14.54;100.00;101921.66;5051610;28;20044;-50
2023/07/18 03:14:24;;;;;;;6.80;2.05;;;;;;;14.41;100.00;101891.19;5052287;28;20040;-50
2023/07/18 03:16:50;;;;;;;7.18;2.53;;;;;;;14.53;100.00;101906.69;5051072;28;20033;-48
2023/07/18 03:19:15;;;;;;;7.53;2.38;;;;;;;14.54;100.00;101896.94;5038394;28;20124;-45
2023/07/18 03:21:40;;;;;;;6.30;2.20;;;;;;;14.50;100.00;101911.22;5044531;28;20420;-48
2023/07/18 03:24:09;;;;;;;11.57;2.47;;;;;;;13.37;100.00;101715.28;5045587;28;20432;-48
2023/07/18 03:26:37;;;;;;;6.15;2.40;;;;;;;14.45;100.00;101898.09;5052508;28;20506;-50
2023/07/18 03:29:04;;;;;;;10.60;2.13;;;;;;;14.03;100.00;101826.16;5018119;28;20083;-53
2023/07/18 03:31:30;;;;;;;6.13;2.28;;;;;;;13.98;100.00;101827.22;5034713;28;20481;-49
2023/07/18 03:33:55;;;;;;;5.72;2.30;;;;;;;14.38;100.00;101908.94;5040309;28;20071;-56
2023/07/18 03:36:21;;;;;;;3.80;2.53;;;;;;;14.31;100.00;101902.06;5032343;28;20037;-48
2023/07/18 03:38:46;;;;;;;8.05;2.30;;;;;;;14.30;100.00;101913.59;5032043;28;20061;-47
2023/07/18 03:41:11;;;;;;;6.68;2.10;;;;;;;14.31;100.00;101910.00;5031102;28;20067;-48
2023/07/18 03:43:37;;;;;;;5.95;2.10;;;;;;;14.25;100.00;101905.78;5040291;28;20508;-47
2023/07/18 03:46:02;;;;;;;5.63;2.15;;;;;;;13.85;100.00;101832.00;5052065;28;20377;-49
2023/07/18 03:48:28;;;;;;;4.25;2.00;;;;;;;14.26;100.00;101907.53;5052138;28;20424;-50
2023/07/18 03:50:53;;;;;;;5.90;2.20;;;;;;;13.73;100.00;101823.56;5052136;28;20037;-55
2023/07/18 03:53:19;;;;;;;4.13;2.20;;;;;;;14.24;100.00;101919.06;5042175;28;20025;-50
2023/07/18 03:55:45;;;;;;;5.38;1.83;;;;;;;14.22;100.00;101908.50;5052003;28;20146;-50
2023/07/18 03:58:10;;;;;;;7.50;2.30;;;;;;;14.22;100.00;101910.28;5034054;28;20499;-54
2023/07/18 04:00:35;;;;;;;9.85;2.53;;;;;;;14.13;100.00;101895.56;5031887;28;20120;-54
2023/07/18 04:03:00;;;;;;;6.47;2.60;;;;;;;14.21;100.00;101906.81;5033038;28;20045;-48
2023/07/18 04:05:26;;;;;;;6.35;2.58;;;;;;;14.16;100.00;101908.69;5014426;28;20059;-48
2023/07/18 04:07:51;;;;;;;6.63;2.45;;;;;;;14.18;100.00;101917.47;5032187;28;20072;-51
2023/07/18 04:10:17;;;;;;;8.15;2.55;;;;;;;14.22;100.00;101910.28;5014387;28;20362;-49
2023/07/18 04:12:42;;;;;;;8.10;2.85;;;;;;;14.19;100.00;101903.31;5031289;28;20091;-48
2023/07/18 04:15:09;;;;;;;8.20;2.22;;;;;;;13.79;100.00;101829.53;5046981;28;20045;-52
2023/07/18 04:17:35;;;;;;;10.77;2.35;;;;;;;13.83;100.00;101838.25;5032163;28;20436;-52
2023/07/18 04:20:00;;;;;;;5.30;2.47;;;;;;;13.79;100.00;101829.53;5031505;28;20037;-51
2023/07/18 04:22:31;;;;;;;4.90;2.83;;;;;;;14.19;100.00;101900.66;5036939;28;20060;-50
2023/07/18 04:24:56;;;;;;;9.15;3.53;;;;;;;13.84;100.00;101843.47;5033983;28;20056;-49
2023/07/18 04:27:23;;;;;;;8.38;3.08;;;;;;;14.21;100.00;101900.63;5035919;28;20041;-51
2023/07/18 04:29:49;;;;;;;7.35;2.67;;;;;;;14.21;100.00;101898.84;5018470;28;20041;-53
2023/07/18 04:32:14;;;;;;;6.55;2.83;;;;;;;13.91;100.00;101846.81;5038011;28;20091;-50
2023/07/18 04:34:39;;;;;;;8.70;3.00;;;;;;;14.27;100.00;101896.03;5048960;28;20040;-46
2023/07/18 04:37:05;;;;;;;7.20;2.95;;;;;;;14.28;100.00;101892.44;5055296;28;20033;-49
2023/07/18 04:39:30;;;;;;;9.25;2.90;;;;;;;14.32;100.00;101894.13;5055678;28;20044;-48
2023/07/18 04:41:56;;;;;;;8.45;3.35;;;;;;;13.90;100.00;101815.97;5055768;28;20045;-53
2023/07/18 04:44:22;;;;;;;7.65;3.05;;;;;;;14.40;100.00;101880.63;5054650;28;20033;-49
2023/07/18 04:46:47;;;;;;;8.85;3.28;;;;;;;14.44;100.00;101891.09;5050717;28;20076;-49
2023/07/18 04:49:13;;;;;;;7.78;3.03;;;;;;;14.49;100.00;101873.25;5035344;28;20060;-52
2023/07/18 04:51:38;;;;;;;7.05;3.42;;;;;;;14.46;100.00;101869.84;5035305;28;20107;-54
2023/07/18 04:54:03;;;;;;;10.10;3.72;;;;;;;14.24;100.00;101816.66;5046734;28;20067;-50
2023/07/18 04:56:29;;;;;;;9.55;3.63;;;;;;;13.94;100.00;101749.66;5055168;28;20071;-52
2023/07/18 04:58:54;;;;;;;10.45;3.22;;;;;;;14.79;100.00;101874.06;5055312;28;20033;-50
2023/07/18 05:01:19;;;;;;;9.52;3.55;;;;;;;14.91;100.00;101873.63;5044877;28;20439;-50
2023/07/18 05:03:45;;;;;;;7.07;3.70;;;;;;;15.01;100.00;101866.22;5036574;28;20041;-47
2023/07/18 05:06:11;;;;;;;9.75;3.50;;;;;;;14.87;100.00;101820.75;5044023;28;20488;-51
2023/07/18 05:08:36;;;;;;;9.25;3.70;;;;;;;14.76;100.00;101797.28;5055172;28;20033;-49
2023/07/18 05:11:02;;;;;;;7.57;3.97;;;;;;;14.81;100.00;101786.50;5053784;28;20377;-51
2023/07/18 05:13:27;;;;;;;10.93;3.47;;;;;;;15.28;100.00;101859.09;5032927;28;20037;-51
2023/07/18 05:15:52;;;;;;;12.20;3.88;;;;;;;15.30;100.00;101870.50;5044323;28;20041;-49
2023/07/18 05:18:18;;;;;;;12.80;4.30;;;;;;;15.31;100.00;101858.97;5051684;28;20541;-53
2023/07/18 05:20:43;;;;;;;12.15;5.00;;;;;;;14.88;100.00;101794.22;5034739;28;20064;-53
2023/07/18 05:23:08;;;;;;;10.10;4.05;;;;;;;14.95;100.00;101803.66;5034407;28;20048;-49
2023/07/18 05:25:34;;;;;;;13.68;4.32;;;;;;;15.08;100.00;101834.16;5034757;28;20041;-47
2023/07/18 05:28:00;;;;;;;12.15;4.20;;;;;;;15.27;100.00;101870.59;5035041;28;20034;-50
2023/07/18 05:30:25;;;;;;;14.95;4.00;;;;;;;15.07;100.00;101836.84;5034562;28;20056;-52
2023/07/18 05:32:52;;;;;;;10.30;3.78;;;;;;;15.06;100.00;101830.66;5033633;28;20381;-50
2023/07/18 05:35:18;;;;;;;9.90;3.97;;;;;;;15.39;100.00;101859.56;5021527;28;20632;-50
2023/07/18 05:37:44;;;;;;;8.05;4.35;;;;;;;15.55;100.00;101868.75;5034369;28;20029;-53
2023/07/18 05:40:10;;;;;;;11.98;4.20;;;;;;;15.70;100.00;101881.47;5033136;28;20059;-51
2023/07/18 05:42:39;;;;;;;8.82;4.88;;;;;;;15.41;100.00;101808.16;5034330;28;20122;-49
2023/07/18 05:45:07;;;;;;;12.13;4.97;;;;;;;15.56;100.00;101815.59;5016070;28;20064;-52
2023/07/18 05:47:32;;;;;;;11.23;4.80;;;;;;;16.00;100.00;101874.09;5034294;28;20130;-51
2023/07/18 05:49:58;;;;;;;12.20;5.80;;;;;;;16.20;100.00;101890.13;5034626;28;20117;-50
2023/07/18 05:52:23;;;;;;;12.55;4.53;;;;;;;16.32;100.00;101887.00;5019654;28;20033;-50
2023/07/18 05:54:49;;;;;;;11.50;5.00;;;;;;;16.05;100.00;101817.22;5053540;28;20037;-48
2023/07/18 05:57:14;;;;;;;11.77;4.90;;;;;;;16.58;100.00;101897.47;5054025;28;20032;-49
2023/07/18 05:59:39;;;;;;;18.52;6.63;;;;;;;15.43;100.00;101680.78;5053991;28;20037;-55
2023/07/18 06:02:05;;;;;;;16.35;6.95;;;;;;;16.25;100.00;101813.78;5053816;28;20037;-49
2023/07/18 06:04:30;;;;;;;16.23;6.60;;;;;;;16.73;100.00;101896.88;5015469;28;20061;-56
2023/07/18 06:06:56;;;;;;;17.33;7.10;;;;;;;16.33;100.00;101804.59;5016237;28;20061;-50
2023/07/18 06:09:22;;;;;;;16.80;7.97;;;;;;;16.67;100.00;101869.66;5018776;28;20495;-53
2023/07/18 06:11:47;;;;;;;17.77;7.63;;;;;;;16.01;100.00;101774.94;5052747;28;20039;-56
2023/07/18 06:14:12;;;;;;;20.30;7.32;;;;;;;16.87;100.00;101888.31;5052597;28;20114;-51
2023/07/18 06:16:38;;;;;;;18.25;7.45;;;;;;;16.86;100.00;101873.31;5053652;28;20039;-53
2023/07/18 06:19:04;;;;;;;13.57;8.52;;;;;;;17.09;100.00;101889.16;5053936;28;20041;-55
2023/07/18 06:21:29;;;;;;;21.75;9.20;;;;;;;17.09;100.00;101886.50;5035885;28;20466;-54
2023/07/18 06:23:55;;;;;;;18.40;8.57;;;;;;;17.28;100.00;101907.81;5052958;28;20062;-50
2023/07/18 06:26:25;;;;;;;23.15;10.73;;;;;;;16.99;100.00;101841.75;5034864;28;20041;-56
2023/07/18 06:28:51;;;;;;;23.52;11.95;;;;;;;17.25;100.00;101889.38;5033261;28;20042;-51
2023/07/18 06:31:16;;;;;;;22.38;11.73;;;;;;;17.39;100.00;101909.13;5033500;28;20037;-51
2023/07/18 06:33:42;;;;;;;28.05;12.60;;;;;;;17.13;100.00;101853.47;5038488;28;20155;-52
2023/07/18 06:36:07;;;;;;;21.92;12.73;;;;;;;17.65;100.00;101915.13;5035383;28;20037;-53
2023/07/18 06:38:32;;;;;;;23.83;13.63;;;;;;;17.64;100.00;101924.03;5035995;28;20044;-52
2023/07/18 06:40:58;;;;;;;17.63;11.63;;;;;;;17.78;100.00;101914.47;5047211;28;20032;-48
2023/07/18 06:43:24;;;;;;;24.13;13.48;;;;;;;17.91;100.00;101914.81;5050663;28;20064;-51
2023/07/18 06:45:50;;;;;;;19.48;11.68;;;;;;;17.99;100.00;101921.50;5051870;28;20124;-54
2023/07/18 06:48:16;;;;;;;22.40;11.23;;;;;;;17.75;100.00;101844.50;5053326;28;20112;-47
2023/07/18 06:50:49;;;;;;;22.35;13.15;;;;;;;18.19;100.00;101909.03;5053126;28;20029;-52
2023/07/18 06:53:17;;;;;;;22.88;13.60;;;;;;;18.25;100.00;101890.97;5052287;28;20064;-50
2023/07/18 06:55:42;;;;;;;21.88;11.80;;;;;;;18.50;100.00;101898.72;5051398;28;20121;-52
2023/07/18 06:58:09;;;;;;;22.00;12.45;;;;;;;18.40;100.00;101849.38;5018732;28;20088;-51
2023/07/18 07:00:35;;;;;;;18.17;14.13;;;;;;;18.46;100.00;101849.09;5049607;28;20098;-49
2023/07/18 07:03:00;;;;;;;23.25;14.27;;;;;;;18.87;100.00;101887.94;5033079;28;20427;-52
2023/07/18 07:05:25;;;;;;;20.27;14.43;;;;;;;19.11;100.00;101917.88;5032749;28;20056;-54
2023/07/18 07:07:51;;;;;;;22.42;14.20;;;;;;;19.26;100.00;101908.22;5031865;28;20120;-54
2023/07/18 07:10:17;;;;;;;19.42;14.68;;;;;;;19.29;100.00;101908.91;5032318;28;20112;-56
2023/07/18 07:12:42;;;;;;;21.23;14.38;;;;;;;19.49;100.00;101905.25;5014500;28;20033;-50
2023/07/18 07:15:09;;;;;;;22.90;15.35;;;;;;;19.63;100.00;101908.91;5014445;28;20682;-56
2023/07/18 07:17:34;;;;;;;23.45;16.13;;;;;;;19.73;100.00;101919.09;5040110;28;20481;-53
2023/07/18 07:20:00;;;;;;;26.30;16.63;;;;;;;19.81;100.00;101906.19;5032580;28;20038;-48
2023/07/18 07:22:27;;;;;;;21.02;15.32;;;;;;;19.69;100.00;101862.31;5032419;28;20154;-48
2023/07/18 07:24:54;;;;;;;21.95;16.52;;;;;;;19.81;100.00;101925.75;5032363;28;20042;-50
2023/07/18 07:27:19;;;;;;;26.33;15.85;;;;;;;19.92;100.00;101903.78;5032335;28;20033;-48
2023/07/18 07:29:45;;;;;;;23.45;16.08;;;;;;;19.76;100.00;101876.19;5032280;28;20056;-50
2023/07/18 07:32:10;;;;;;;23.92;16.00;;;;;;;19.80;100.00;101909.81;5021181;28;20128;-54
2023/07/18 07:34:35;;;;;;;22.05;15.75;;;;;;;19.61;100.00;101861.88;5031988;28;20060;-50
2023/07/18 07:37:00;;;;;;;21.88;16.30;;;;;;;19.89;100.00;101911.97;5032438;28;20111;-51
2023/07/18 07:39:26;;;;;;;23.08;16.33;;;;;;;20.01;100.00;101914.84;5032326;28;20097;-55
2023/07/18 07:41:51;;;;;;;21.55;15.60;;;;;;;19.61;100.00;101853.84;5032309;28;20036;-53
2023/07/18 07:44:16;;;;;;;23.42;16.30;;;;;;;19.71;100.00;101856.88;5026361;28;20037;-51
2023/07/18 07:46:42;;;;;;;17.58;14.35;;;;;;;19.80;100.00;101849.22;5052151;28;20079;-51
2023/07/18 07:49:07;;;;;;;26.10;14.00;;;;;;;20.07;100.00;101854.84;5045417;28;20117;-52
2023/07/18 07:51:33;;;;;;;18.92;13.63;;;;;;;20.56;100.00;101872.53;5032339;28;20037;-53
2023/07/18 07:53:59;;;;;;;23.73;14.20;;;;;;;21.18;100.00;101911.72;5031643;28;20061;-54
2023/07/18 07:56:24;;;;;;;20.27;13.27;;;;;;;21.45;100.00;101913.69;5031819;28;20091;-53
2023/07/18 07:58:50;;;;;;;17.30;12.32;;;;;;;21.93;100.00;101916.06;5014318;28;20477;-55
2023/07/18 08:01:15;;;;;;;15.90;10.63;;;;;;;22.07;100.00;101853.50;5032122;28;20034;-54
2023/07/18 08:03:40;;;;;;;19.13;10.48;;;;;;;22.55;100.00;101917.41;5047577;28;20025;-51
2023/07/18 08:06:06;;;;;;;20.38;10.77;;;;;;;22.49;100.00;101912.44;5039976;28;20029;-54
2023/07/18 08:08:31;;;;;;;17.73;12.48;;;;;;;22.27;100.00;101894.16;5040935;28;20037;-51
2023/07/18 08:10:56;;;;;;;19.33;12.15;;;;;;;21.79;100.00;101865.09;5049553;28;20033;-54
2023/07/18 08:13:22;;;;;;;15.65;11.35;;;;;;;22.07;100.00;101917.84;5005236;28;20033;-53
2023/07/18 08:19:09;;;;;;;15.75;10.60;;;;;;;22.24;100.00;101872.91;5031056;28;20090;-56
2023/07/18 08:21:34;;;;;;;22.27;11.35;;;;;;;22.73;100.00;101897.44;5032760;28;20481;-49
2023/07/18 08:24:00;;;;;;;19.35;12.98;;;;;;;23.21;100.00;101921.94;5051551;28;20106;-56
2023/07/18 08:26:26;;;;;;;17.77;10.45;;;;;;;23.35;100.00;101911.97;5050532;28;20041;-54
2023/07/18 08:28:51;;;;;;;18.17;10.32;;;;;;;23.44;100.00;101878.25;5051922;28;20041;-51
2023/07/18 08:31:16;;;;;;;14.43;10.90;;;;;;;23.72;100.00;101937.19;5051829;28;20439;-53
2023/07/18 08:33:42;;;;;;;17.52;10.60;;;;;;;23.82;100.00;101910.50;5051760;28;20095;-49
2023/07/18 08:36:07;;;;;;;14.88;9.68;;;;;;;24.31;100.00;101929.44;5051644;28;20443;-49
2023/07/18 08:38:33;;;;;;;15.23;11.05;;;;;;;24.46;100.00;101931.84;5046239;28;20471;-53
2023/07/18 08:40:58;;;;;;;16.45;10.55;;;;;;;24.36;100.00;101879.69;5031760;28;20041;-50
2023/07/18 08:43:24;;;;;;;15.90;9.88;;;;;;;24.45;100.00;101873.63;5030477;28;20076;-48
2023/07/18 08:45:51;;;;;;;13.60;9.73;;;;;;;24.79;100.00;101928.50;5031722;28;20037;-53
2023/07/18 08:48:16;;;;;;;16.50;10.57;;;;;;;24.61;100.00;101924.47;5030513;28;20061;-51
2023/07/18 08:50:42;;;;;;;14.00;9.60;;;;;;;24.05;100.00;101872.09;5031399;28;20444;-53
2023/07/18 08:53:07;;;;;;;10.57;9.10;;;;;;;23.99;100.00;101904.81;5031007;28;20082;-52
2023/07/18 08:55:32;;;;;;;14.52;9.85;;;;;;;23.80;100.00;101874.81;5031634;28;20069;-52
2023/07/18 08:57:59;;;;;;;12.20;8.55;;;;;;;23.85;100.00;101929.97;5031507;28;20033;-51
2023/07/18 09:00:25;;;;;;;11.18;9.18;;;;;;;23.78;100.00;101909.03;5030269;28;20059;-52
2023/07/18 09:02:50;;;;;;;13.00;9.15;;;;;;;24.22;100.00;101914.81;5031656;28;20038;-53
2023/07/18 09:05:32;;;;;;;18.13;8.45;;;;;;;24.42;100.00;101922.28;5031517;28;20041;-53
2023/07/18 09:08:01;;;;;;;10.75;7.65;;;;;;;24.08;100.00;101870.03;5045985;28;20526;-56
2023/07/18 09:10:27;;;;;;;13.25;7.90;;;;;;;24.37;100.00;101918.22;5035117;28;20037;-52
2023/07/18 09:12:53;;;;;;;9.98;7.18;;;;;;;23.94;100.00;101837.03;5033584;28;20473;-53
2023/07/18 09:15:19;;;;;;;14.23;8.02;;;;;;;23.94;100.00;101848.66;5034695;28;20048;-52
2023/07/18 09:18:06;;;;;;;10.38;6.97;;;;;;;24.53;100.00;101903.50;5050091;28;20484;-51
2023/07/18 09:20:32;;;;;;;8.77;5.47;;;;;;;24.49;100.00;101844.63;5034980;28;20030;-55
2023/07/18 09:22:59;;;;;;;9.13;6.18;;;;;;;25.30;100.00;101912.94;5033542;28;20060;-51
2023/07/18 09:25:26;;;;;;;10.25;6.70;;;;;;;25.49;100.00;101889.00;5034468;28;20091;-51
2023/07/18 09:27:55;;;;;;;9.88;6.32;;;;;;;25.81;100.00;101918.81;5049891;28;20037;-53
2023/07/18 09:30:22;;;;;;;11.45;5.57;;;;;;;25.69;100.00;101919.78;5034623;28;20603;-54
2023/07/18 09:32:52;;;;;;;10.60;6.07;;;;;;;25.72;100.00;101890.72;5033142;28;20083;-52
2023/07/18 09:35:17;;;;;;;7.57;5.38;;;;;;;26.01;100.00;101879.44;5049902;28;20029;-54
2023/07/18 09:37:45;;;;;;;11.23;5.00;;;;;;;26.57;100.00;101889.19;5034961;28;20080;-58
2023/07/18 09:40:12;;;;;;;11.55;5.60;;;;;;;26.61;100.00;101911.41;5035019;28;20030;-58
2023/07/18 09:42:38;;;;;;;11.75;6.22;;;;;;;26.84;100.00;101902.28;5040847;28;20049;-56
2023/07/18 09:45:04;;;;;;;9.30;5.45;;;;;;;27.01;100.00;101919.75;5034118;28;20034;-58
2023/07/18 09:47:30;;;;;;;10.27;5.10;;;;;;;26.83;100.00;101863.59;5033239;28;20437;-59
2023/07/18 09:49:56;;;;;;;9.48;4.60;;;;;;;27.38;100.00;101902.13;5034471;28;20033;-60
2023/07/18 09:52:25;;;;;;;8.32;4.18;;;;;;;27.41;100.00;101909.97;5016749;28;20033;-60
2023/07/18 09:54:52;;;;;;;10.77;4.03;;;;;;;27.19;100.00;101865.00;5033080;28;20041;-59
2023/07/18 09:57:18;;;;;;;8.73;4.47;;;;;;;27.67;100.00;101919.41;5038946;28;20025;-57
2023/07/18 09:59:44;;;;;;;9.27;4.57;;;;;;;27.08;100.00;101856.97;5042414;28;20033;-58
2023/07/18 10:02:10;;;;;;;16.35;6.82;;;;;;;26.86;100.00;101904.84;5051188;28;20045;-57
2023/07/18 10:04:36;;;;;;;11.55;5.68;;;;;;;26.61;100.00;101890.66;5031434;28;20487;-58
2023/07/18 10:07:02;;;;;;;9.32;4.40;;;;;;;26.55;100.00;101883.06;5038953;28;20043;-58
2023/07/18 10:09:29;;;;;;;12.23;4.40;;;;;;;26.58;100.00;101871.16;5032966;28;20068;-58
2023/07/18 10:11:57;;;;;;;8.13;4.50;;;;;;;26.65;100.00;101886.72;5032771;28;20117;-58
2023/07/18 10:14:27;;;;;;;8.63;3.92;;;;;;;26.62;100.00;101878.03;5033718;28;20038;-59
2023/07/18 10:16:55;;;;;;;9.52;4.22;;;;;;;26.90;100.00;101869.34;5039243;28;20030;-58
2023/07/18 10:19:24;;;;;;;7.57;3.10;;;;;;;26.83;100.00;101873.53;5037291;28;20083;-57
2023/07/18 10:21:52;;;;;;;6.57;3.13;;;;;;;26.49;100.00;101874.63;5033523;28;20056;-57
2023/07/18 10:24:20;;;;;;;8.85;3.30;;;;;;;26.37;100.00;101871.09;5016087;28;20065;-57
2023/07/18 10:26:52;;;;;;;7.82;3.45;;;;;;;26.16;100.00;101825.13;5038430;28;20041;-57
2023/07/18 10:29:17;;;;;;;13.07;3.80;;;;;;;26.71;100.00;101861.88;5043116;28;20388;-56
2023/07/18 10:31:42;;;;;;;6.93;3.55;;;;;;;26.62;100.00;101805.94;5033845;28;20033;-57
2023/07/18 10:34:14;;;;;;;7.03;3.03;;;;;;;26.61;100.00;101761.03;5038664;28;20091;-58
2023/07/18 10:36:40;;;;;;;6.88;2.90;;;;;;;27.43;100.00;101862.06;5038628;28;20032;-57
2023/07/18 10:39:12;;;;;;;7.07;2.90;;;;;;;27.84;100.00;101861.13;5033306;28;20463;-56
2023/07/18 10:41:44;;;;;;;7.20;2.53;;;;;;;28.67;100.00;101858.94;5033650;28;20025;-56
2023/07/18 10:44:12;;;;;;;9.45;3.00;;;;;;;29.21;100.00;101871.91;5015718;28;20469;-56
2023/07/18 10:46:38;;;;;;;10.00;3.13;;;;;;;28.85;100.00;101816.59;5037765;28;20046;-57
2023/07/18 10:49:04;;;;;;;9.18;2.95;;;;;;;29.25;100.00;101826.38;5035607;28;20034;-56
2023/07/18 10:51:30;;;;;;;6.72;2.28;;;;;;;29.71;100.00;101864.41;5034009;28;20034;-55
2023/07/18 10:53:58;;;;;;;5.70;2.20;;;;;;;30.11;100.00;101880.38;5032947;28;20040;-57
2023/07/18 10:56:23;;;;;;;6.63;2.72;;;;;;;30.38;100.00;101872.25;5015559;28;20025;-56
2023/07/18 10:58:51;;;;;;;11.30;3.35;;;;;;;30.44;100.00;101877.06;5032230;28;20052;-57
2023/07/18 11:01:17;;;;;;;5.20;2.95;;;;;;;30.24;100.00;101840.13;5028701;28;20445;-55
2023/07/18 11:03:45;;;;;;;6.82;3.22;;;;;;;30.29;100.00;101866.84;5032985;28;20136;-53
2023/07/18 11:06:10;;;;;;;9.13;2.65;;;;;;;30.17;100.00;101847.19;5017100;28;20447;-53
2023/07/18 11:08:37;;;;;;;6.30;2.10;;;;;;;29.31;100.00;101788.69;5037745;28;20048;-58
2023/07/18 11:11:04;;;;;;;4.88;2.28;;;;;;;28.75;100.00;101847.41;5002103;28;20107;-58